sensor_id;sensor_type;location;lat;lon;timestamp;temperature;humidity
21582;DHT22;10952;50.836;4.348;2022-11-04T00:01:46;11.70;99.90
21582;DHT22;10952;50.836;4.348;2022-11-04T00:04:14;11.60;99.90
21582;DHT22;10952;50.836;4.348;2022-11-04T00:06:40;11.60;99.90
21582;DHT22;10952;50.836;4.348;2022-11-04T00:09:09;11.70;99.90
21582;DHT22;10952;50.836;4.348;2022-11-04T00:11:35;11.60;99.90
21582;DHT22;10952;50.836;4.348;2022-11-04T00:14:20;11.60;99.90
21582;DHT22;10952;50.836;4.348;2022-11-04T00:16:46;11.60;99.90
21582;DHT22;10952;50.836;4.348;2022-11-04T00:19:30;11.60;99.90
21582;DHT22;10952;50.836;4.348;2022-11-04T00:22:18;11.60;99.90
21582;DHT22;10952;50.836;4.348;2022-11-04T00:25:03;11.60;99.90
21582;DHT22;10952;50.836;4.348;2022-11-04T00:27:48;11.60;99.90
21582;DHT22;10952;50.836;4.348;2022-11-04T00:30:32;11.50;99.90
21582;DHT22;10952;50.836;4.348;2022-11-04T00:32:57;11.60;99.90
21582;DHT22;10952;50.836;4.348;2022-11-04T00:35:48;11.60;99.90
21582;DHT22;10952;50.836;4.348;2022-11-04T00:38:14;11.50;99.90
21582;DHT22;10952;50.836;4.348;2022-11-04T00:40:40;11.50;99.90
21582;DHT22;10952;50.836;4.348;2022-11-04T00:43:06;11.50;99.90
21582;DHT22;10952;50.836;4.348;2022-11-04T00:45:32;11.50;99.90
21582;DHT22;10952;50.836;4.348;2022-11-04T00:47:57;11.50;99.90
21582;DHT22;10952;50.836;4.348;2022-11-04T00:50:23;11.60;99.90
21582;DHT22;10952;50.836;4.348;2022-11-04T00:52:48;11.70;99.90
21582;DHT22;10952;50.836;4.348;2022-11-04T00:55:14;11.80;99.90
21582;DHT22;10952;50.836;4.348;2022-11-04T00:57:40;11.70;99.90
21582;DHT22;10952;50.836;4.348;2022-11-04T01:00:06;11.60;99.90
21582;DHT22;10952;50.836;4.348;2022-11-04T01:02:32;11.70;99.90
21582;DHT22;10952;50.836;4.348;2022-11-04T01:04:57;11.70;99.90
21582;DHT22;10952;50.836;4.348;2022-11-04T01:07:23;11.80;99.90
21582;DHT22;10952;50.836;4.348;2022-11-04T01:09:49;11.80;99.90
21582;DHT22;10952;50.836;4.348;2022-11-04T01:12:14;11.70;99.90
21582;DHT22;10952;50.836;4.348;2022-11-04T01:14:41;11.70;99.90
21582;DHT22;10952;50.836;4.348;2022-11-04T01:17:07;11.60;99.90
21582;DHT22;10952;50.836;4.348;2022-11-04T01:19:33;11.60;99.90
21582;DHT22;10952;50.836;4.348;2022-11-04T01:21:59;11.60;99.90
21582;DHT22;10952;50.836;4.348;2022-11-04T01:24:24;11.60;99.90
21582;DHT22;10952;50.836;4.348;2022-11-04T01:26:50;11.60;99.90
21582;DHT22;10952;50.836;4.348;2022-11-04T01:29:16;11.60;99.90
21582;DHT22;10952;50.836;4.348;2022-11-04T01:31:41;11.50;99.90
21582;DHT22;10952;50.836;4.348;2022-11-04T01:34:07;11.50;99.90
21582;DHT22;10952;50.836;4.348;2022-11-04T01:36:33;11.50;99.90
21582;DHT22;10952;50.836;4.348;2022-11-04T01:38:59;11.40;99.90
21582;DHT22;10952;50.836;4.348;2022-11-04T01:41:28;11.40;99.90
21582;DHT22;10952;50.836;4.348;2022-11-04T01:43:56;11.40;99.90
21582;DHT22;10952;50.836;4.348;2022-11-04T01:46:30;11.50;99.90
21582;DHT22;10952;50.836;4.348;2022-11-04T01:49:02;11.40;99.90
21582;DHT22;10952;50.836;4.348;2022-11-04T01:51:32;11.40;99.90
21582;DHT22;10952;50.836;4.348;2022-11-04T01:54:00;11.40;99.90
21582;DHT22;10952;50.836;4.348;2022-11-04T01:56:27;11.50;99.90
21582;DHT22;10952;50.836;4.348;2022-11-04T01:58:56;11.40;99.90
21582;DHT22;10952;50.836;4.348;2022-11-04T02:01:24;11.30;99.90
21582;DHT22;10952;50.836;4.348;2022-11-04T02:03:59;11.20;99.90
21582;DHT22;10952;50.836;4.348;2022-11-04T02:06:50;11.30;99.90
21582;DHT22;10952;50.836;4.348;2022-11-04T02:09:17;11.20;99.90
21582;DHT22;10952;50.836;4.348;2022-11-04T02:11:44;11.20;99.90
21582;DHT22;10952;50.836;4.348;2022-11-04T02:14:29;11.20;99.90
21582;DHT22;10952;50.836;4.348;2022-11-04T02:22:56;11.20;99.90
21582;DHT22;10952;50.836;4.348;2022-11-04T02:28:35;11.10;99.90
21582;DHT22;10952;50.836;4.348;2022-11-04T02:31:18;11.30;99.90
21582;DHT22;10952;50.836;4.348;2022-11-04T02:34:10;11.30;99.90
21582;DHT22;10952;50.836;4.348;2022-11-04T02:36:52;11.40;99.90
21582;DHT22;10952;50.836;4.348;2022-11-04T02:42:11;11.40;99.90
21582;DHT22;10952;50.836;4.348;2022-11-04T02:44:47;11.40;99.90
21582;DHT22;10952;50.836;4.348;2022-11-04T02:47:22;11.50;99.90
21582;DHT22;10952;50.836;4.348;2022-11-04T02:49:53;11.50;99.90
21582;DHT22;10952;50.836;4.348;2022-11-04T02:55:09;11.50;99.90
21582;DHT22;10952;50.836;4.348;2022-11-04T02:57:38;11.50;99.90
21582;DHT22;10952;50.836;4.348;2022-11-04T03:00:11;11.60;99.90
21582;DHT22;10952;50.836;4.348;2022-11-04T03:02:43;11.70;99.90
21582;DHT22;10952;50.836;4.348;2022-11-04T03:05:13;11.70;99.90
21582;DHT22;10952;50.836;4.348;2022-11-04T03:07:42;11.70;99.90
21582;DHT22;10952;50.836;4.348;2022-11-04T03:10:32;11.80;99.90
21582;DHT22;10952;50.836;4.348;2022-11-04T03:13:35;11.80;99.90
21582;DHT22;10952;50.836;4.348;2022-11-04T03:16:06;11.80;99.90
21582;DHT22;10952;50.836;4.348;2022-11-04T03:19:08;11.70;99.90
21582;DHT22;10952;50.836;4.348;2022-11-04T03:21:42;11.70;99.90
21582;DHT22;10952;50.836;4.348;2022-11-04T03:24:10;11.60;99.90
21582;DHT22;10952;50.836;4.348;2022-11-04T03:26:45;11.60;99.90
21582;DHT22;10952;50.836;4.348;2022-11-04T03:34:24;11.80;99.90
21582;DHT22;10952;50.836;4.348;2022-11-04T03:36:50;11.90;99.90
21582;DHT22;10952;50.836;4.348;2022-11-04T03:39:16;11.90;99.90
21582;DHT22;10952;50.836;4.348;2022-11-04T03:41:47;11.90;99.90
21582;DHT22;10952;50.836;4.348;2022-11-04T03:44:13;11.90;99.90
21582;DHT22;10952;50.836;4.348;2022-11-04T03:46:39;12.00;99.90
21582;DHT22;10952;50.836;4.348;2022-11-04T03:49:06;12.00;99.90
21582;DHT22;10952;50.836;4.348;2022-11-04T03:51:32;12.00;99.90
21582;DHT22;10952;50.836;4.348;2022-11-04T03:53:58;12.00;99.90
21582;DHT22;10952;50.836;4.348;2022-11-04T03:56:47;11.90;99.90
21582;DHT22;10952;50.836;4.348;2022-11-04T04:01:56;11.80;99.90
21582;DHT22;10952;50.836;4.348;2022-11-04T04:07:25;11.80;99.90
21582;DHT22;10952;50.836;4.348;2022-11-04T04:09:54;11.80;99.90
21582;DHT22;10952;50.836;4.348;2022-11-04T04:12:34;11.80;99.90
21582;DHT22;10952;50.836;4.348;2022-11-04T04:15:12;11.80;99.90
21582;DHT22;10952;50.836;4.348;2022-11-04T04:17:46;11.90;99.90
21582;DHT22;10952;50.836;4.348;2022-11-04T04:20:18;11.90;99.90
21582;DHT22;10952;50.836;4.348;2022-11-04T04:22:51;11.90;99.90
21582;DHT22;10952;50.836;4.348;2022-11-04T04:25:19;11.90;99.90
21582;DHT22;10952;50.836;4.348;2022-11-04T04:28:07;11.90;99.90
21582;DHT22;10952;50.836;4.348;2022-11-04T04:30:34;11.90;99.90
21582;DHT22;10952;50.836;4.348;2022-11-04T04:33:12;12.00;99.90
21582;DHT22;10952;50.836;4.348;2022-11-04T04:35:43;11.90;99.90
21582;DHT22;10952;50.836;4.348;2022-11-04T04:38:16;11.90;99.90
21582;DHT22;10952;50.836;4.348;2022-11-04T04:41:17;11.90;99.90
21582;DHT22;10952;50.836;4.348;2022-11-04T04:44:03;11.90;99.90
21582;DHT22;10952;50.836;4.348;2022-11-04T04:46:49;11.90;99.90
21582;DHT22;10952;50.836;4.348;2022-11-04T04:49:16;11.90;99.90
21582;DHT22;10952;50.836;4.348;2022-11-04T04:51:44;11.80;99.90
21582;DHT22;10952;50.836;4.348;2022-11-04T04:54:11;11.80;99.90
21582;DHT22;10952;50.836;4.348;2022-11-04T04:56:37;11.80;99.90
21582;DHT22;10952;50.836;4.348;2022-11-04T04:59:03;11.80;99.90
21582;DHT22;10952;50.836;4.348;2022-11-04T05:01:29;11.80;99.90
21582;DHT22;10952;50.836;4.348;2022-11-04T05:03:54;11.90;99.90
21582;DHT22;10952;50.836;4.348;2022-11-04T05:06:20;11.90;99.90
21582;DHT22;10952;50.836;4.348;2022-11-04T05:08:46;12.00;99.90
21582;DHT22;10952;50.836;4.348;2022-11-04T05:11:12;12.00;99.90
21582;DHT22;10952;50.836;4.348;2022-11-04T05:13:37;12.00;99.90
21582;DHT22;10952;50.836;4.348;2022-11-04T05:16:05;11.90;99.90
21582;DHT22;10952;50.836;4.348;2022-11-04T05:18:31;11.90;99.90
21582;DHT22;10952;50.836;4.348;2022-11-04T05:20:57;11.90;99.90
21582;DHT22;10952;50.836;4.348;2022-11-04T05:23:23;12.00;99.90
21582;DHT22;10952;50.836;4.348;2022-11-04T05:25:48;12.00;99.90
21582;DHT22;10952;50.836;4.348;2022-11-04T05:28:14;11.80;99.90
21582;DHT22;10952;50.836;4.348;2022-11-04T05:30:40;11.80;99.90
21582;DHT22;10952;50.836;4.348;2022-11-04T05:33:05;11.80;99.90
21582;DHT22;10952;50.836;4.348;2022-11-04T05:35:32;11.90;99.90
21582;DHT22;10952;50.836;4.348;2022-11-04T05:37:58;11.80;99.90
21582;DHT22;10952;50.836;4.348;2022-11-04T05:40:24;11.80;99.90
21582;DHT22;10952;50.836;4.348;2022-11-04T05:42:49;11.80;99.90
21582;DHT22;10952;50.836;4.348;2022-11-04T05:45:15;11.90;99.90
21582;DHT22;10952;50.836;4.348;2022-11-04T05:47:41;11.90;99.90
21582;DHT22;10952;50.836;4.348;2022-11-04T05:50:07;11.80;99.90
21582;DHT22;10952;50.836;4.348;2022-11-04T05:52:32;11.80;99.90
21582;DHT22;10952;50.836;4.348;2022-11-04T05:54:58;11.80;99.90
21582;DHT22;10952;50.836;4.348;2022-11-04T05:57:23;11.80;99.90
21582;DHT22;10952;50.836;4.348;2022-11-04T05:59:49;11.90;99.90
21582;DHT22;10952;50.836;4.348;2022-11-04T06:02:15;11.90;99.90
21582;DHT22;10952;50.836;4.348;2022-11-04T06:04:40;11.90;99.90
21582;DHT22;10952;50.836;4.348;2022-11-04T06:07:06;11.90;99.90
21582;DHT22;10952;50.836;4.348;2022-11-04T06:09:32;11.90;99.90
21582;DHT22;10952;50.836;4.348;2022-11-04T06:12:11;11.90;99.90
21582;DHT22;10952;50.836;4.348;2022-11-04T06:14:42;12.00;99.90
21582;DHT22;10952;50.836;4.348;2022-11-04T06:17:16;12.00;99.90
21582;DHT22;10952;50.836;4.348;2022-11-04T06:19:43;12.00;99.90
21582;DHT22;10952;50.836;4.348;2022-11-04T06:22:10;12.00;99.90
21582;DHT22;10952;50.836;4.348;2022-11-04T06:24:37;12.00;99.90
21582;DHT22;10952;50.836;4.348;2022-11-04T06:27:02;12.00;99.90
21582;DHT22;10952;50.836;4.348;2022-11-04T06:29:34;12.10;99.90
21582;DHT22;10952;50.836;4.348;2022-11-04T06:32:08;12.10;99.90
21582;DHT22;10952;50.836;4.348;2022-11-04T06:34:33;12.20;99.90
21582;DHT22;10952;50.836;4.348;2022-11-04T06:36:59;12.00;99.90
21582;DHT22;10952;50.836;4.348;2022-11-04T06:39:25;12.10;99.90
21582;DHT22;10952;50.836;4.348;2022-11-04T06:41:50;12.00;99.90
21582;DHT22;10952;50.836;4.348;2022-11-04T06:44:16;12.00;99.90
21582;DHT22;10952;50.836;4.348;2022-11-04T06:46:42;12.00;99.90
21582;DHT22;10952;50.836;4.348;2022-11-04T06:49:16;11.90;99.90
21582;DHT22;10952;50.836;4.348;2022-11-04T06:51:42;11.90;99.90
21582;DHT22;10952;50.836;4.348;2022-11-04T06:54:08;11.90;99.90
21582;DHT22;10952;50.836;4.348;2022-11-04T06:56:34;12.00;99.90
21582;DHT22;10952;50.836;4.348;2022-11-04T06:59:00;12.10;99.90
21582;DHT22;10952;50.836;4.348;2022-11-04T07:01:28;12.10;99.90
21582;DHT22;10952;50.836;4.348;2022-11-04T07:03:57;12.00;99.90
21582;DHT22;10952;50.836;4.348;2022-11-04T07:06:23;12.10;99.90
21582;DHT22;10952;50.836;4.348;2022-11-04T07:08:50;12.00;99.90
21582;DHT22;10952;50.836;4.348;2022-11-04T07:11:20;12.10;99.90
21582;DHT22;10952;50.836;4.348;2022-11-04T07:13:47;12.10;99.90
21582;DHT22;10952;50.836;4.348;2022-11-04T07:16:14;12.10;99.90
21582;DHT22;10952;50.836;4.348;2022-11-04T07:18:39;12.10;99.90
21582;DHT22;10952;50.836;4.348;2022-11-04T07:21:05;12.20;99.90
21582;DHT22;10952;50.836;4.348;2022-11-04T07:23:31;12.30;99.90
21582;DHT22;10952;50.836;4.348;2022-11-04T07:26:01;12.30;99.90
21582;DHT22;10952;50.836;4.348;2022-11-04T07:28:27;12.30;99.90
21582;DHT22;10952;50.836;4.348;2022-11-04T07:30:57;12.20;99.90
21582;DHT22;10952;50.836;4.348;2022-11-04T07:33:24;12.10;99.90
21582;DHT22;10952;50.836;4.348;2022-11-04T07:35:49;12.20;99.90
21582;DHT22;10952;50.836;4.348;2022-11-04T07:38:15;12.20;99.90
21582;DHT22;10952;50.836;4.348;2022-11-04T07:40:41;12.40;99.90
21582;DHT22;10952;50.836;4.348;2022-11-04T07:43:06;12.40;99.90
21582;DHT22;10952;50.836;4.348;2022-11-04T07:45:32;12.50;99.90
21582;DHT22;10952;50.836;4.348;2022-11-04T07:47:58;12.40;99.90
21582;DHT22;10952;50.836;4.348;2022-11-04T07:50:23;12.50;99.90
21582;DHT22;10952;50.836;4.348;2022-11-04T07:52:49;12.60;99.90
21582;DHT22;10952;50.836;4.348;2022-11-04T07:55:18;12.70;99.90
21582;DHT22;10952;50.836;4.348;2022-11-04T07:57:44;12.60;99.90
21582;DHT22;10952;50.836;4.348;2022-11-04T08:00:11;12.80;99.90
21582;DHT22;10952;50.836;4.348;2022-11-04T08:02:37;12.90;99.90
21582;DHT22;10952;50.836;4.348;2022-11-04T08:05:03;13.10;99.90
21582;DHT22;10952;50.836;4.348;2022-11-04T08:07:31;13.00;99.90
21582;DHT22;10952;50.836;4.348;2022-11-04T08:09:57;13.00;99.90
21582;DHT22;10952;50.836;4.348;2022-11-04T08:12:22;13.00;99.90
21582;DHT22;10952;50.836;4.348;2022-11-04T08:14:49;13.10;99.90
21582;DHT22;10952;50.836;4.348;2022-11-04T08:17:15;13.00;99.90
21582;DHT22;10952;50.836;4.348;2022-11-04T08:19:41;12.90;99.90
21582;DHT22;10952;50.836;4.348;2022-11-04T08:22:08;13.00;99.90
21582;DHT22;10952;50.836;4.348;2022-11-04T08:24:34;13.00;99.90
21582;DHT22;10952;50.836;4.348;2022-11-04T08:27:00;13.00;99.90
21582;DHT22;10952;50.836;4.348;2022-11-04T08:29:26;12.90;99.90
21582;DHT22;10952;50.836;4.348;2022-11-04T08:31:52;13.00;99.90
21582;DHT22;10952;50.836;4.348;2022-11-04T08:34:17;13.10;99.90
21582;DHT22;10952;50.836;4.348;2022-11-04T08:36:44;13.10;99.90
21582;DHT22;10952;50.836;4.348;2022-11-04T08:39:10;13.10;99.90
21582;DHT22;10952;50.836;4.348;2022-11-04T08:41:39;13.00;99.90
21582;DHT22;10952;50.836;4.348;2022-11-04T08:44:06;13.00;99.90
21582;DHT22;10952;50.836;4.348;2022-11-04T08:46:35;12.90;99.90
21582;DHT22;10952;50.836;4.348;2022-11-04T08:49:02;13.00;99.90
21582;DHT22;10952;50.836;4.348;2022-11-04T08:51:30;13.00;99.90
21582;DHT22;10952;50.836;4.348;2022-11-04T08:53:56;13.00;99.90
21582;DHT22;10952;50.836;4.348;2022-11-04T08:56:31;13.10;99.90
21582;DHT22;10952;50.836;4.348;2022-11-04T08:58:58;13.20;99.90
21582;DHT22;10952;50.836;4.348;2022-11-04T09:01:24;13.30;99.90
21582;DHT22;10952;50.836;4.348;2022-11-04T09:03:50;13.30;99.90
21582;DHT22;10952;50.836;4.348;2022-11-04T09:06:22;13.20;99.90
21582;DHT22;10952;50.836;4.348;2022-11-04T09:08:48;13.20;99.90
21582;DHT22;10952;50.836;4.348;2022-11-04T09:11:15;13.30;99.90
21582;DHT22;10952;50.836;4.348;2022-11-04T09:13:42;13.20;99.90
21582;DHT22;10952;50.836;4.348;2022-11-04T09:16:10;13.00;99.90
21582;DHT22;10952;50.836;4.348;2022-11-04T09:18:36;13.10;99.90
21582;DHT22;10952;50.836;4.348;2022-11-04T09:21:03;13.20;99.90
21582;DHT22;10952;50.836;4.348;2022-11-04T09:23:29;13.30;99.90
21582;DHT22;10952;50.836;4.348;2022-11-04T09:25:55;13.30;99.90
21582;DHT22;10952;50.836;4.348;2022-11-04T09:28:23;13.50;99.90
21582;DHT22;10952;50.836;4.348;2022-11-04T09:30:49;13.60;99.90
21582;DHT22;10952;50.836;4.348;2022-11-04T09:33:15;13.70;99.90
21582;DHT22;10952;50.836;4.348;2022-11-04T09:35:41;13.70;99.90
21582;DHT22;10952;50.836;4.348;2022-11-04T09:38:06;13.80;99.90
21582;DHT22;10952;50.836;4.348;2022-11-04T09:40:34;13.80;99.90
21582;DHT22;10952;50.836;4.348;2022-11-04T09:46:00;13.90;99.90
21582;DHT22;10952;50.836;4.348;2022-11-04T09:48:48;13.90;99.90
21582;DHT22;10952;50.836;4.348;2022-11-04T09:51:18;13.80;99.90
21582;DHT22;10952;50.836;4.348;2022-11-04T09:53:50;13.90;99.90
21582;DHT22;10952;50.836;4.348;2022-11-04T09:56:21;14.00;99.90
21582;DHT22;10952;50.836;4.348;2022-11-04T09:58:48;14.10;99.90
21582;DHT22;10952;50.836;4.348;2022-11-04T10:03:56;14.20;99.90
21582;DHT22;10952;50.836;4.348;2022-11-04T10:14:57;14.20;99.90
21582;DHT22;10952;50.836;4.348;2022-11-04T10:17:45;14.10;99.90
21582;DHT22;10952;50.836;4.348;2022-11-04T10:26:06;13.90;99.90
21582;DHT22;10952;50.836;4.348;2022-11-04T10:28:40;13.90;99.90
21582;DHT22;10952;50.836;4.348;2022-11-04T10:31:13;13.90;99.90
21582;DHT22;10952;50.836;4.348;2022-11-04T10:33:43;13.90;99.90
21582;DHT22;10952;50.836;4.348;2022-11-04T10:36:10;13.90;99.90
21582;DHT22;10952;50.836;4.348;2022-11-04T10:43:52;14.00;99.90
21582;DHT22;10952;50.836;4.348;2022-11-04T10:46:48;14.10;99.90
21582;DHT22;10952;50.836;4.348;2022-11-04T10:52:04;13.90;99.90
21582;DHT22;10952;50.836;4.348;2022-11-04T10:54:37;13.80;99.90
21582;DHT22;10952;50.836;4.348;2022-11-04T10:57:04;13.80;99.90
21582;DHT22;10952;50.836;4.348;2022-11-04T11:02:07;14.00;99.90
21582;DHT22;10952;50.836;4.348;2022-11-04T11:04:36;13.80;99.90
21582;DHT22;10952;50.836;4.348;2022-11-04T11:07:07;13.70;99.90
21582;DHT22;10952;50.836;4.348;2022-11-04T11:09:42;13.80;99.90
21582;DHT22;10952;50.836;4.348;2022-11-04T11:14:41;14.00;99.90
21582;DHT22;10952;50.836;4.348;2022-11-04T11:22:30;14.30;99.90
21582;DHT22;10952;50.836;4.348;2022-11-04T11:30:29;14.10;99.90
21582;DHT22;10952;50.836;4.348;2022-11-04T11:33:05;14.00;99.90
21582;DHT22;10952;50.836;4.348;2022-11-04T11:35:49;13.80;99.90
21582;DHT22;10952;50.836;4.348;2022-11-04T11:38:22;13.80;99.90
21582;DHT22;10952;50.836;4.348;2022-11-04T11:40:49;14.00;99.90
21582;DHT22;10952;50.836;4.348;2022-11-04T11:43:26;14.20;99.90
21582;DHT22;10952;50.836;4.348;2022-11-04T11:45:53;14.30;99.90
21582;DHT22;10952;50.836;4.348;2022-11-04T11:48:30;14.60;99.90
21582;DHT22;10952;50.836;4.348;2022-11-04T11:50:56;14.80;99.90
21582;DHT22;10952;50.836;4.348;2022-11-04T11:53:27;14.90;99.90
21582;DHT22;10952;50.836;4.348;2022-11-04T11:56:26;14.90;99.90
21582;DHT22;10952;50.836;4.348;2022-11-04T11:59:03;14.90;99.90
21582;DHT22;10952;50.836;4.348;2022-11-04T12:04:27;15.10;99.90
21582;DHT22;10952;50.836;4.348;2022-11-04T12:25:48;14.90;99.90
21582;DHT22;10952;50.836;4.348;2022-11-04T12:28:58;14.90;99.90
21582;DHT22;10952;50.836;4.348;2022-11-04T12:40:10;14.40;99.90
21582;DHT22;10952;50.836;4.348;2022-11-04T12:42:45;14.40;99.90
21582;DHT22;10952;50.836;4.348;2022-11-04T12:47:53;14.30;99.90
21582;DHT22;10952;50.836;4.348;2022-11-04T12:50:51;14.50;99.90
21582;DHT22;10952;50.836;4.348;2022-11-04T12:56:08;14.60;99.90
21582;DHT22;10952;50.836;4.348;2022-11-04T13:01:16;14.40;99.90
21582;DHT22;10952;50.836;4.348;2022-11-04T13:03:52;14.30;99.90
21582;DHT22;10952;50.836;4.348;2022-11-04T13:06:33;14.20;99.90
21582;DHT22;10952;50.836;4.348;2022-11-04T13:09:07;14.30;99.90
21582;DHT22;10952;50.836;4.348;2022-11-04T13:11:38;14.40;99.90
21582;DHT22;10952;50.836;4.348;2022-11-04T13:14:20;14.50;99.90
21582;DHT22;10952;50.836;4.348;2022-11-04T13:16:59;14.70;99.90
21582;DHT22;10952;50.836;4.348;2022-11-04T13:22:12;14.60;99.90
21582;DHT22;10952;50.836;4.348;2022-11-04T13:24:53;14.30;99.90
21582;DHT22;10952;50.836;4.348;2022-11-04T13:27:34;14.50;99.90
21582;DHT22;10952;50.836;4.348;2022-11-04T13:32:57;14.50;99.90
21582;DHT22;10952;50.836;4.348;2022-11-04T13:38:28;14.50;99.90
21582;DHT22;10952;50.836;4.348;2022-11-04T13:43:47;14.60;99.90
21582;DHT22;10952;50.836;4.348;2022-11-04T13:51:20;14.80;99.90
21582;DHT22;10952;50.836;4.348;2022-11-04T13:53:55;14.80;99.90
21582;DHT22;10952;50.836;4.348;2022-11-04T13:56:26;14.50;99.90
21582;DHT22;10952;50.836;4.348;2022-11-04T13:58:56;14.30;99.90
21582;DHT22;10952;50.836;4.348;2022-11-04T14:06:50;14.30;99.90
21582;DHT22;10952;50.836;4.348;2022-11-04T14:14:49;14.10;99.90
21582;DHT22;10952;50.836;4.348;2022-11-04T14:25:38;14.10;99.90
21582;DHT22;10952;50.836;4.348;2022-11-04T14:33:34;13.80;99.90
21582;DHT22;10952;50.836;4.348;2022-11-04T14:46:47;12.80;99.90
21582;DHT22;10952;50.836;4.348;2022-11-04T14:52:04;12.70;99.90
21582;DHT22;10952;50.836;4.348;2022-11-04T14:54:32;12.70;99.90
21582;DHT22;10952;50.836;4.348;2022-11-04T14:57:18;12.80;99.90
21582;DHT22;10952;50.836;4.348;2022-11-04T14:59:44;12.70;99.90
21582;DHT22;10952;50.836;4.348;2022-11-04T15:02:24;12.70;99.90
21582;DHT22;10952;50.836;4.348;2022-11-04T15:05:22;12.70;99.90
21582;DHT22;10952;50.836;4.348;2022-11-04T15:07:49;12.60;99.90
21582;DHT22;10952;50.836;4.348;2022-11-04T15:10:26;12.60;99.90
21582;DHT22;10952;50.836;4.348;2022-11-04T15:13:00;12.60;99.90
21582;DHT22;10952;50.836;4.348;2022-11-04T15:15:36;12.80;99.90
21582;DHT22;10952;50.836;4.348;2022-11-04T15:18:11;12.90;99.90
21582;DHT22;10952;50.836;4.348;2022-11-04T15:20:47;13.00;99.90
21582;DHT22;10952;50.836;4.348;2022-11-04T15:23:16;13.00;99.90
21582;DHT22;10952;50.836;4.348;2022-11-04T15:25:46;13.00;99.90
21582;DHT22;10952;50.836;4.348;2022-11-04T15:28:18;13.00;99.90
21582;DHT22;10952;50.836;4.348;2022-11-04T15:33:27;13.00;99.90
21582;DHT22;10952;50.836;4.348;2022-11-04T15:35:55;13.00;99.90
21582;DHT22;10952;50.836;4.348;2022-11-04T15:38:24;13.00;99.90
21582;DHT22;10952;50.836;4.348;2022-11-04T15:40:51;12.80;99.90
21582;DHT22;10952;50.836;4.348;2022-11-04T15:43:17;12.70;99.90
21582;DHT22;10952;50.836;4.348;2022-11-04T15:51:08;12.70;99.90
21582;DHT22;10952;50.836;4.348;2022-11-04T15:53:56;12.60;99.90
21582;DHT22;10952;50.836;4.348;2022-11-04T15:56:39;12.60;99.90
21582;DHT22;10952;50.836;4.348;2022-11-04T15:59:10;12.50;99.90
21582;DHT22;10952;50.836;4.348;2022-11-04T16:01:48;12.20;99.90
21582;DHT22;10952;50.836;4.348;2022-11-04T16:04:15;12.00;99.90
21582;DHT22;10952;50.836;4.348;2022-11-04T16:06:43;12.10;99.90
21582;DHT22;10952;50.836;4.348;2022-11-04T16:11:36;12.00;99.90
21582;DHT22;10952;50.836;4.348;2022-11-04T16:14:35;12.00;99.90
21582;DHT22;10952;50.836;4.348;2022-11-04T16:17:01;12.10;99.90
21582;DHT22;10952;50.836;4.348;2022-11-04T16:19:28;12.20;99.90
21582;DHT22;10952;50.836;4.348;2022-11-04T16:22:05;12.20;99.90
21582;DHT22;10952;50.836;4.348;2022-11-04T16:24:36;12.20;99.90
21582;DHT22;10952;50.836;4.348;2022-11-04T16:27:07;12.40;99.90
21582;DHT22;10952;50.836;4.348;2022-11-04T16:29:36;12.50;99.90
21582;DHT22;10952;50.836;4.348;2022-11-04T16:34:32;12.60;99.90
21582;DHT22;10952;50.836;4.348;2022-11-04T16:36:58;12.60;99.90
21582;DHT22;10952;50.836;4.348;2022-11-04T16:39:24;12.70;99.90
21582;DHT22;10952;50.836;4.348;2022-11-04T16:41:49;12.70;99.90
21582;DHT22;10952;50.836;4.348;2022-11-04T16:44:19;12.70;99.90
21582;DHT22;10952;50.836;4.348;2022-11-04T16:46:45;12.50;99.90
21582;DHT22;10952;50.836;4.348;2022-11-04T16:49:16;12.50;99.90
21582;DHT22;10952;50.836;4.348;2022-11-04T16:51:43;12.60;99.90
21582;DHT22;10952;50.836;4.348;2022-11-04T16:54:09;12.50;99.90
21582;DHT22;10952;50.836;4.348;2022-11-04T16:56:36;12.60;99.90
21582;DHT22;10952;50.836;4.348;2022-11-04T16:59:02;12.60;99.90
21582;DHT22;10952;50.836;4.348;2022-11-04T17:01:29;12.70;99.90
21582;DHT22;10952;50.836;4.348;2022-11-04T17:03:54;12.80;99.90
21582;DHT22;10952;50.836;4.348;2022-11-04T17:06:20;12.80;99.90
21582;DHT22;10952;50.836;4.348;2022-11-04T17:08:46;12.80;99.90
21582;DHT22;10952;50.836;4.348;2022-11-04T17:11:12;12.80;99.90
21582;DHT22;10952;50.836;4.348;2022-11-04T17:13:38;12.70;99.90
21582;DHT22;10952;50.836;4.348;2022-11-04T17:16:05;12.70;99.90
21582;DHT22;10952;50.836;4.348;2022-11-04T17:18:32;12.70;99.90
21582;DHT22;10952;50.836;4.348;2022-11-04T17:21:01;12.70;99.90
21582;DHT22;10952;50.836;4.348;2022-11-04T17:23:29;12.50;99.90
21582;DHT22;10952;50.836;4.348;2022-11-04T17:25:55;12.40;99.90
21582;DHT22;10952;50.836;4.348;2022-11-04T17:28:20;12.40;99.90
21582;DHT22;10952;50.836;4.348;2022-11-04T17:30:46;12.30;99.90
21582;DHT22;10952;50.836;4.348;2022-11-04T17:33:16;12.30;99.90
21582;DHT22;10952;50.836;4.348;2022-11-04T17:35:44;12.30;99.90
21582;DHT22;10952;50.836;4.348;2022-11-04T17:38:13;12.20;99.90
21582;DHT22;10952;50.836;4.348;2022-11-04T17:40:39;12.20;99.90
21582;DHT22;10952;50.836;4.348;2022-11-04T17:43:24;12.30;99.90
21582;DHT22;10952;50.836;4.348;2022-11-04T17:46:09;12.30;99.90
21582;DHT22;10952;50.836;4.348;2022-11-04T17:48:53;12.30;99.90
21582;DHT22;10952;50.836;4.348;2022-11-04T17:51:19;12.20;99.90
21582;DHT22;10952;50.836;4.348;2022-11-04T17:53:46;12.30;99.90
21582;DHT22;10952;50.836;4.348;2022-11-04T17:56:15;12.20;99.90
21582;DHT22;10952;50.836;4.348;2022-11-04T17:58:41;12.30;99.90
21582;DHT22;10952;50.836;4.348;2022-11-04T18:01:08;12.30;99.90
21582;DHT22;10952;50.836;4.348;2022-11-04T18:03:34;12.40;99.90
21582;DHT22;10952;50.836;4.348;2022-11-04T18:06:01;12.10;99.90
21582;DHT22;10952;50.836;4.348;2022-11-04T18:08:27;12.10;99.90
21582;DHT22;10952;50.836;4.348;2022-11-04T18:11:07;12.10;99.90
21582;DHT22;10952;50.836;4.348;2022-11-04T18:13:34;12.00;99.90
21582;DHT22;10952;50.836;4.348;2022-11-04T18:16:12;11.90;99.90
21582;DHT22;10952;50.836;4.348;2022-11-04T18:18:39;11.80;99.90
21582;DHT22;10952;50.836;4.348;2022-11-04T18:21:06;11.70;99.90
21582;DHT22;10952;50.836;4.348;2022-11-04T18:23:32;11.70;99.90
21582;DHT22;10952;50.836;4.348;2022-11-04T18:25:58;11.70;99.90
21582;DHT22;10952;50.836;4.348;2022-11-04T18:28:24;11.80;99.90
21582;DHT22;10952;50.836;4.348;2022-11-04T18:30:49;11.80;99.90
21582;DHT22;10952;50.836;4.348;2022-11-04T18:33:15;11.70;99.90
21582;DHT22;10952;50.836;4.348;2022-11-04T18:35:41;11.60;99.90
21582;DHT22;10952;50.836;4.348;2022-11-04T18:38:06;11.60;99.90
21582;DHT22;10952;50.836;4.348;2022-11-04T18:40:32;11.70;99.90
21582;DHT22;10952;50.836;4.348;2022-11-04T18:42:57;11.70;99.90
21582;DHT22;10952;50.836;4.348;2022-11-04T18:45:25;11.70;99.90